INFORMAÇÕES DO AERODROMO
Icao Aerodromo CYEG Nome do Aerodromo Edmonton International Airport Cidade Edmonton
Código GPS CYEG Elevação Média 2373 ft Tipo de Aerodromo Aeroporto Grande Porte

INFORMAÇÃO DE PISTA
Pista 02 Comprimento da Pista 11000 ft Largura da Pista 200 ft
Elevação da Pista 2322 ft Distância de Area de Escape da Pista 0 ft Orientação da Pista 34
Pista 20 Comprimento da Pista 11000 ft Largura da Pista 200 ft
Elevação da Pista 2337 ft Distância de Area de Escape da Pista 0 ft Orientação da Pista 214
Pista 12 Comprimento da Pista 10200 ft Largura da Pista 200 ft
Elevação da Pista 2325 ft Distância de Area de Escape da Pista 0 ft Orientação da Pista 135
Pista 30 Comprimento da Pista 10200 ft Largura da Pista 200 ft
Elevação da Pista 2372 ft Distância de Area de Escape da Pista 0 ft Orientação da Pista 315

FREQUÊNCIAS DO AERODROMO
Tipo AAS Nome TWR VFR AD Frequência 118.3 MHZ
Tipo APP Nome APP Frequência 118.3 MHZ
Tipo ARR Nome ARR Frequência 120.5 MHZ
Tipo ATIS Nome ATIS Frequência 128 MHZ
Tipo CLD Nome CLNC DEL Frequência 124.1 MHZ
Tipo DEP Nome DEP Frequência 133.65 MHZ
Tipo FSS Nome RDO Frequência 122.5 MHZ
Tipo GND Nome GND Frequência 121.7 MHZ
Tipo INFO Nome EXEC FLT C Frequência 122.95 MHZ
Tipo INFO Nome FLT TECH A Frequência 123 MHZ
Tipo TWR Nome TWR Frequência 118.3 MHZ

INFORMAÇÕES DE NAVEGAÇÃO PRÓXIMO AO AERODROMO
Tipo VORTAC Nome Edmonton Frequência 117600 KHZ
Tipo NDB Nome Leduc Frequência 215 KHZ
Tipo NDB Nome Nisku Frequência 379 KHZ
Tipo NDB Nome Devon Frequência 292 KHZ
Tipo NDB Nome Calmar Frequência 308 KHZ

Informações de Meteorologia(METAR atual)
METAR DE CYEG
ADDS - METARS form results

(0956 UTC 26 April 2018)
Data provider http://aviationweather.gov/adds/metars/
 
METAR text: CYEG 260900Z 26005KT 15SM SKC 03/M01 A3004 RMK SLP190
Conditions at: CYEG (EDMONTON INTL AR, AB, CA) observed 0900 UTC 26 April 2018
Temperature: 3.0°C (37°F)
Dewpoint: -1.0°C (30°F) [RH = 75%]
Pressure (altimeter): 30.04 inches Hg (1017.4 mb)
[Sea-level pressure: 1019.0 mb]
Winds: from the W (260 degrees) at 6 MPH (5 knots; 2.6 m/s)
Visibility: 15 miles (24 km)
Ceiling: at least 12,000 feet AGL
Clouds: clear skies
Weather: no significant weather observed at this time

Forecast for: CYEG (EDMONTON INTL AR, AB, CA)
Text: TAF CYEG 260838Z 2609/2706 VRB03KT P6SM SKC
Forecast period: 0900 to 1000 UTC 26 April 2018
Forecast type: FROM: standard forecast or significant change
Winds: variable direction winds at 3 MPH (3 knots; 1.6 m/s)
Visibility: 6 or more miles (10+ km)
Clouds: clear skies
Weather: no significant weather forecast for this period
Forecast for: CYEG (EDMONTON INTL AR, AB, CA)
Text: TAF CYEG 260838Z 2609/2706 VRB03KT P6SM SKC
Forecast period: 0900 to 1000 UTC 26 April 2018
Forecast type: FROM: standard forecast or significant change
Winds: variable direction winds at 3 MPH (3 knots; 1.6 m/s)
Visibility: 6 or more miles (10+ km)
Clouds: clear skies
Weather: no significant weather forecast for this period
Forecast for: CYEG (EDMONTON INTL AR, AB, CA)
Text: TAF CYEG 260838Z 2609/2706 VRB03KT P6SM SKC
Forecast period: 1000 to 1800 UTC 26 April 2018
Forecast type: BECOMING: Conditions expected to become as follows by 1200 UTC 26 April 2018
Winds: from the W (270 degrees) at 12 MPH (10 knots; 5.2 m/s)
Visibility: 6 or more miles (10+ km)
Clouds: clear skies
Weather: no significant weather forecast for this period
Forecast for: CYEG (EDMONTON INTL AR, AB, CA)
Text: TAF CYEG 260838Z 2609/2706 VRB03KT P6SM SKC
Forecast period: 1000 to 1800 UTC 26 April 2018
Forecast type: BECOMING: Conditions expected to become as follows by 1200 UTC 26 April 2018
Winds: from the W (270 degrees) at 12 MPH (10 knots; 5.2 m/s)
Visibility: 6 or more miles (10+ km)
Clouds: clear skies
Weather: no significant weather forecast for this period
Forecast for: CYEG (EDMONTON INTL AR, AB, CA)
Text: TAF CYEG 260838Z 2609/2706 VRB03KT P6SM SKC
Forecast period: 1800 to 2200 UTC 26 April 2018
Forecast type: FROM: standard forecast or significant change
Winds: from the N (360 degrees) at 9 MPH (8 knots; 4.2 m/s)
Visibility: 6 or more miles (10+ km)
Clouds: clear skies
Weather: no significant weather forecast for this period
Forecast for: CYEG (EDMONTON INTL AR, AB, CA)
Text: TAF CYEG 260838Z 2609/2706 VRB03KT P6SM SKC
Forecast period: 1800 to 2200 UTC 26 April 2018
Forecast type: FROM: standard forecast or significant change
Winds: from the N (360 degrees) at 9 MPH (8 knots; 4.2 m/s)
Visibility: 6 or more miles (10+ km)
Clouds: clear skies
Weather: no significant weather forecast for this period
Forecast for: CYEG (EDMONTON INTL AR, AB, CA)
Text: TAF CYEG 260838Z 2609/2706 VRB03KT P6SM SKC
Forecast period: 2200 UTC 26 April 2018 to 0600 UTC 27 April 2018
Forecast type: FROM: standard forecast or significant change
Winds: from the E (100 degrees) at 9 MPH (8 knots; 4.2 m/s)
Visibility: 6 or more miles (10+ km)
Clouds: clear skies
Weather: no significant weather forecast for this period
Forecast for: CYEG (EDMONTON INTL AR, AB, CA)
Text: TAF CYEG 260838Z 2609/2706 VRB03KT P6SM SKC
Forecast period: 2200 UTC 26 April 2018 to 0600 UTC 27 April 2018
Forecast type: FROM: standard forecast or significant change
Winds: from the E (100 degrees) at 9 MPH (8 knots; 4.2 m/s)
Visibility: 6 or more miles (10+ km)
Clouds: clear skies
Weather: no significant weather forecast for this period

MAPA DO AERODROMO


Desenvolvido por Virtual Airlines Manager




Modificado por Servidor Brasil Amigos